createdAt,value
2018-03-24T00:02:16.611Z,93.10
2018-03-24T00:04:43.234Z,93.00
2018-03-24T00:07:09.809Z,92.80
2018-03-24T00:09:36.561Z,92.70
2018-03-24T00:12:03.210Z,93.30
2018-03-24T00:14:29.829Z,92.70
2018-03-24T00:16:56.362Z,92.30
2018-03-24T00:19:22.928Z,92.90
2018-03-24T00:21:49.494Z,92.80
2018-03-24T00:24:16.043Z,92.90
2018-03-24T00:26:42.617Z,93.40
2018-03-24T00:29:09.190Z,93.50
2018-03-24T00:31:36.090Z,93.60
2018-03-24T00:34:02.718Z,93.60
2018-03-24T00:36:29.286Z,93.50
2018-03-24T00:38:55.838Z,93.50
2018-03-24T00:41:22.406Z,92.90
2018-03-24T00:43:49.002Z,92.70
2018-03-24T00:46:15.531Z,92.70
2018-03-24T00:48:42.100Z,93.40
2018-03-24T00:51:08.781Z,92.90
2018-03-24T00:53:35.313Z,92.70
2018-03-24T00:56:01.884Z,93.10
2018-03-24T00:58:28.449Z,92.60
2018-03-24T01:00:55.073Z,92.80
2018-03-24T01:03:21.688Z,93.10
2018-03-24T01:05:48.266Z,93.10
2018-03-24T01:08:14.804Z,92.80
2018-03-24T01:10:41.466Z,93.20
2018-03-24T01:13:08.030Z,93.60
2018-03-24T01:15:34.561Z,93.40
2018-03-24T01:18:01.212Z,93.20
2018-03-24T01:20:27.776Z,93.50
2018-03-24T01:22:54.305Z,93.90
2018-03-24T01:25:20.865Z,93.40
2018-03-24T01:27:47.434Z,93.50
2018-03-24T01:30:14.376Z,95.10
2018-03-24T01:32:40.941Z,95.10
2018-03-24T01:35:07.883Z,95.10
2018-03-24T01:37:34.423Z,95.10
2018-03-24T01:40:01.031Z,95.30
2018-03-24T01:42:27.632Z,94.90
2018-03-24T01:44:54.157Z,95.00
2018-03-24T01:47:20.721Z,95.00
2018-03-24T01:49:47.314Z,95.50
2018-03-24T01:52:13.889Z,95.20
2018-03-24T01:54:40.454Z,95.00
2018-03-24T01:57:07.029Z,95.10
2018-03-24T01:59:33.945Z,94.70
2018-03-24T02:02:00.509Z,94.70
2018-03-24T02:04:27.521Z,94.60
2018-03-24T02:06:54.071Z,94.60
2018-03-24T02:09:20.634Z,94.20
2018-03-24T02:11:47.202Z,94.60
2018-03-24T02:14:13.738Z,94.20
2018-03-24T02:16:40.303Z,94.20
2018-03-24T02:19:06.895Z,94.60
2018-03-24T02:21:35.352Z,94.50
2018-03-24T02:24:02.296Z,94.50
2018-03-24T02:26:28.899Z,94.50
2018-03-24T02:28:55.430Z,94.90
2018-03-24T02:31:22.039Z,94.40
2018-03-24T02:33:48.662Z,94.20
2018-03-24T02:36:15.194Z,94.40
2018-03-24T02:38:41.838Z,94.90
2018-03-24T02:41:08.485Z,95.00
2018-03-24T02:43:35.269Z,95.50
2018-03-24T02:46:01.894Z,96.00
2018-03-24T02:48:28.454Z,95.10
2018-03-24T02:50:55.011Z,94.60
2018-03-24T02:53:21.581Z,95.00
2018-03-24T02:55:48.154Z,95.30
2018-03-24T02:58:15.050Z,95.70
2018-03-24T03:00:41.712Z,95.70
2018-03-24T03:03:08.286Z,95.10
2018-03-24T03:05:34.818Z,94.90
2018-03-24T03:08:01.397Z,94.80
2018-03-24T03:10:28.342Z,94.90
2018-03-24T03:12:55.238Z,95.00
2018-03-24T03:15:21.811Z,95.00
2018-03-24T03:17:48.370Z,95.00
2018-03-24T03:20:14.903Z,94.50
2018-03-24T03:22:41.466Z,94.90
2018-03-24T03:25:08.038Z,94.80
2018-03-24T03:27:35.033Z,95.00
2018-03-24T03:30:01.647Z,95.00
2018-03-24T03:32:28.630Z,95.50
2018-03-24T03:34:55.169Z,95.50
2018-03-24T03:37:21.738Z,95.50
2018-03-24T03:39:48.318Z,95.50
2018-03-24T03:42:15.062Z,95.60
2018-03-24T03:44:41.674Z,95.60
2018-03-24T03:47:08.233Z,95.40
2018-03-24T03:49:34.781Z,94.80
2018-03-24T03:52:01.459Z,94.60
2018-03-24T03:54:28.073Z,95.10
2018-03-24T03:56:54.651Z,94.90
2018-03-24T03:59:21.209Z,94.80
2018-03-24T04:01:47.844Z,95.00
2018-03-24T04:04:14.374Z,94.60
2018-03-24T04:06:40.941Z,94.50
2018-03-24T04:09:07.498Z,94.40
2018-03-24T04:11:34.037Z,94.30
2018-03-24T04:14:00.609Z,94.60
2018-03-24T04:16:27.178Z,94.70
2018-03-24T04:18:53.722Z,94.50
2018-03-24T04:21:20.690Z,94.60
2018-03-24T04:23:47.382Z,94.60
2018-03-24T04:26:14.040Z,94.50
2018-03-24T04:28:40.653Z,94.80
2018-03-24T04:31:07.218Z,94.70
2018-03-24T04:33:33.746Z,94.60
2018-03-24T04:36:00.399Z,94.50
2018-03-24T04:38:27.005Z,93.90
2018-03-24T04:40:53.538Z,94.10
2018-03-24T04:43:20.369Z,94.00
2018-03-24T04:45:46.932Z,94.60
2018-03-24T04:48:13.542Z,94.40
2018-03-24T04:50:40.102Z,94.30
2018-03-24T04:53:06.768Z,93.80
2018-03-24T04:55:33.318Z,94.00
2018-03-24T04:57:59.887Z,94.40
2018-03-24T05:00:26.460Z,93.90
2018-03-24T05:02:53.392Z,95.30
2018-03-24T05:05:20.325Z,96.00
2018-03-24T05:07:46.889Z,96.00
2018-03-24T05:10:13.413Z,96.20
2018-03-24T05:12:39.977Z,96.10
2018-03-24T05:15:06.601Z,95.80
2018-03-24T05:17:33.129Z,95.70
2018-03-24T05:19:59.694Z,95.40
2018-03-24T05:22:26.271Z,95.40
2018-03-24T05:24:52.903Z,95.30
2018-03-24T05:27:19.549Z,95.40
2018-03-24T05:29:46.125Z,95.70
2018-03-24T05:32:12.670Z,95.40
2018-03-24T05:34:39.622Z,95.10
2018-03-24T05:37:06.186Z,95.10
2018-03-24T05:39:33.085Z,94.90
2018-03-24T05:42:06.652Z,94.90
2018-03-24T05:44:33.625Z,93.60
2018-03-24T05:47:00.165Z,93.60
2018-03-24T05:49:27.111Z,93.20
2018-03-24T05:51:54.048Z,93.30
2018-03-24T05:54:20.589Z,93.20
2018-03-24T05:56:47.640Z,92.30
2018-03-24T05:59:14.258Z,92.30
2018-03-24T06:01:40.794Z,91.80
2018-03-24T06:04:07.366Z,91.60
2018-03-24T06:06:34.033Z,91.30
2018-03-24T06:09:00.683Z,89.80
2018-03-24T06:11:27.331Z,89.90
2018-03-24T06:13:53.899Z,89.00
2018-03-24T06:16:20.435Z,88.90
2018-03-24T06:18:47.007Z,88.50
2018-03-24T06:21:13.947Z,87.70
2018-03-24T06:23:40.578Z,87.70
2018-03-24T06:26:07.141Z,87.10
2018-03-24T06:28:33.739Z,87.20
2018-03-24T06:34:00.636Z,85.70
2018-03-24T06:36:30.258Z,85.50
2018-03-24T06:38:56.831Z,84.00
2018-03-24T06:41:23.412Z,84.50
2018-03-24T06:43:50.405Z,83.50
2018-03-24T06:46:16.978Z,83.50
2018-03-24T06:48:43.523Z,82.10
2018-03-24T06:51:10.093Z,82.70
2018-03-24T06:53:36.683Z,82.30
2018-03-24T06:56:03.250Z,81.40
2018-03-24T06:58:29.818Z,81.50
2018-03-24T07:00:56.440Z,82.00
2018-03-24T07:03:23.020Z,81.30
2018-03-24T07:05:49.646Z,81.70
2018-03-24T07:08:16.315Z,81.00
2018-03-24T07:10:42.840Z,79.50
2018-03-24T07:13:09.459Z,79.50
2018-03-24T07:15:36.389Z,79.70
2018-03-24T07:18:02.934Z,79.70
2018-03-24T07:20:29.506Z,79.80
2018-03-24T07:22:56.433Z,79.70
2018-03-24T07:25:22.973Z,79.70
2018-03-24T07:27:49.538Z,78.90
2018-03-24T07:30:16.478Z,78.80
2018-03-24T07:32:43.001Z,78.80
2018-03-24T07:35:09.606Z,78.30
2018-03-24T07:37:36.533Z,77.80
2018-03-24T07:40:03.138Z,77.70
2018-03-24T07:42:29.754Z,77.50
2018-03-24T07:44:56.730Z,75.70
2018-03-24T07:47:23.264Z,75.70
2018-03-24T07:49:49.821Z,76.20
2018-03-24T07:52:16.394Z,75.70
2018-03-24T07:54:42.935Z,75.70
2018-03-24T07:57:09.577Z,75.50
2018-03-24T07:59:36.197Z,75.80
2018-03-24T08:02:03.157Z,75.10
2018-03-24T08:04:30.098Z,74.90
2018-03-24T08:06:56.664Z,74.90
2018-03-24T08:09:23.221Z,74.90
2018-03-24T08:11:49.782Z,75.70
2018-03-24T08:14:16.351Z,74.90
2018-03-24T08:16:42.890Z,73.50
2018-03-24T08:19:09.459Z,73.60
2018-03-24T08:21:36.025Z,73.60
2018-03-24T08:24:02.567Z,73.40
2018-03-24T08:26:29.174Z,72.80
2018-03-24T08:28:55.742Z,72.10
2018-03-24T08:31:22.277Z,72.50
2018-03-24T08:33:48.843Z,72.40
2018-03-24T08:36:15.422Z,72.30
2018-03-24T08:38:42.323Z,70.40
2018-03-24T08:41:08.896Z,70.40
2018-03-24T08:43:35.537Z,69.90
2018-03-24T08:46:02.079Z,70.30
2018-03-24T08:48:28.668Z,70.90
2018-03-24T08:50:55.622Z,70.30
2018-03-24T08:53:22.525Z,70.30
2018-03-24T08:55:49.097Z,70.20
2018-03-24T08:58:15.677Z,69.20
2018-03-24T09:00:42.588Z,69.30
2018-03-24T09:03:09.161Z,69.30
2018-03-24T09:05:35.730Z,69.90
2018-03-24T09:08:02.673Z,69.20
2018-03-24T09:10:29.255Z,69.20
2018-03-24T09:12:55.877Z,68.60
2018-03-24T09:15:22.450Z,68.30
2018-03-24T09:17:49.035Z,67.60
2018-03-24T09:20:15.602Z,67.10
2018-03-24T09:22:42.142Z,66.70
2018-03-24T09:25:08.705Z,67.00
2018-03-24T09:27:35.291Z,67.40
2018-03-24T09:30:01.824Z,67.70
2018-03-24T09:32:28.418Z,67.00
2018-03-24T09:34:55.025Z,67.30
2018-03-24T09:37:21.923Z,66.50
2018-03-24T09:39:48.498Z,66.50
2018-03-24T09:42:15.442Z,66.90
2018-03-24T09:44:42.039Z,66.90
2018-03-24T09:47:08.596Z,67.10
2018-03-24T09:49:42.146Z,66.50
2018-03-24T09:52:08.726Z,68.50
2018-03-24T09:54:35.669Z,66.90
2018-03-24T09:57:02.223Z,66.90
2018-03-24T09:59:29.187Z,67.00
2018-03-24T10:01:56.125Z,68.80
2018-03-24T10:04:22.694Z,68.70
2018-03-24T10:06:49.263Z,67.80
2018-03-24T10:09:15.843Z,67.50
2018-03-24T10:11:42.440Z,67.20
2018-03-24T10:14:09.022Z,68.20
2018-03-24T10:16:35.590Z,67.50
2018-03-24T10:19:02.122Z,67.30
2018-03-24T10:21:37.461Z,67.60
2018-03-24T10:27:05.047Z,67.20
2018-03-24T10:29:31.730Z,68.40
2018-03-24T10:31:58.266Z,67.10
2018-03-24T10:34:24.837Z,67.90
2018-03-24T10:36:51.411Z,66.20
2018-03-24T10:39:18.325Z,66.30
2018-03-24T10:41:44.957Z,66.30
2018-03-24T10:44:11.624Z,68.50
2018-03-24T10:46:38.257Z,68.10
2018-03-24T10:49:04.858Z,69.10
2018-03-24T10:51:31.430Z,67.40
2018-03-24T10:53:57.982Z,67.60
2018-03-24T10:56:24.570Z,67.30
2018-03-24T10:58:51.186Z,67.80
2018-03-24T11:01:24.732Z,67.80
2018-03-24T11:03:51.337Z,67.60
2018-03-24T11:06:17.913Z,67.60
2018-03-24T11:08:44.513Z,68.70
2018-03-24T11:11:11.446Z,67.50
2018-03-24T11:13:38.029Z,67.50
2018-03-24T11:16:05.009Z,66.20
2018-03-24T11:18:31.591Z,66.20
2018-03-24T11:20:58.214Z,66.40
2018-03-24T11:23:24.802Z,65.30
2018-03-24T11:25:51.400Z,66.70
2018-03-24T11:28:17.942Z,66.20
2018-03-24T11:30:44.538Z,67.60
2018-03-24T11:33:11.138Z,65.40
2018-03-24T11:35:37.692Z,64.50
2018-03-24T11:38:04.289Z,65.10
2018-03-24T11:40:30.862Z,64.40
2018-03-24T11:42:57.775Z,66.40
2018-03-24T11:45:24.383Z,66.40
2018-03-24T11:47:50.958Z,65.60
2018-03-24T11:50:17.528Z,65.60
2018-03-24T11:52:44.108Z,65.60
2018-03-24T11:55:10.705Z,66.50
2018-03-24T11:57:37.274Z,65.00
2018-03-24T12:00:15.018Z,65.70
2018-03-24T12:02:41.616Z,65.10
2018-03-24T12:05:08.214Z,64.60
2018-03-24T12:07:34.808Z,64.70
2018-03-24T12:10:01.450Z,64.90
2018-03-24T12:12:27.993Z,65.30
2018-03-24T12:14:54.590Z,65.30
2018-03-24T12:17:21.549Z,64.60
2018-03-24T12:19:48.473Z,64.60
2018-03-24T12:22:15.057Z,64.60
2018-03-24T12:24:41.661Z,64.30
2018-03-24T12:27:08.213Z,63.40
2018-03-24T12:29:34.801Z,65.60
2018-03-24T12:32:01.414Z,65.60
2018-03-24T12:34:27.966Z,64.80
2018-03-24T12:36:54.546Z,65.60
2018-03-24T12:39:21.490Z,62.40
2018-03-24T12:41:48.417Z,62.70
2018-03-24T12:44:15.009Z,62.70
2018-03-24T12:46:41.633Z,62.20
2018-03-24T12:49:08.176Z,60.30
2018-03-24T12:51:34.740Z,60.00
2018-03-24T12:54:01.689Z,60.60
2018-03-24T12:56:28.610Z,61.50
2018-03-24T12:58:55.189Z,61.50
2018-03-24T13:01:21.766Z,60.90
2018-03-24T13:03:48.305Z,61.50
2018-03-24T13:06:14.882Z,60.60
2018-03-24T13:08:41.449Z,59.80
2018-03-24T13:11:08.003Z,61.40
2018-03-24T13:13:34.616Z,60.30
2018-03-24T13:16:01.226Z,61.80
2018-03-24T13:18:28.157Z,60.40
2018-03-24T13:20:54.742Z,60.40
2018-03-24T13:23:21.683Z,60.40
2018-03-24T13:25:48.242Z,60.50
2018-03-24T13:28:15.194Z,60.90
2018-03-24T13:30:42.142Z,59.40
2018-03-24T13:33:09.059Z,60.00
2018-03-24T13:35:35.630Z,60.10
2018-03-24T13:38:02.226Z,58.70
2018-03-24T13:40:28.757Z,57.00
2018-03-24T13:42:55.689Z,56.80
2018-03-24T13:45:22.346Z,56.80
2018-03-24T13:47:48.901Z,57.50
2018-03-24T13:50:15.470Z,58.10
2018-03-24T13:52:42.415Z,58.00
2018-03-24T13:55:09.333Z,57.70
2018-03-24T13:57:35.913Z,57.70
2018-03-24T14:00:02.942Z,56.20
2018-03-24T14:02:29.489Z,56.20
2018-03-24T14:04:56.076Z,57.10
2018-03-24T14:07:23.029Z,55.70
2018-03-24T14:09:49.946Z,55.40
2018-03-24T14:12:16.535Z,55.40
2018-03-24T14:14:43.497Z,56.20
2018-03-24T14:17:10.100Z,56.20
2018-03-24T14:19:36.676Z,56.50
2018-03-24T14:22:03.642Z,56.60
2018-03-24T14:24:30.560Z,56.70
2018-03-24T14:26:57.142Z,56.70
2018-03-24T14:29:24.102Z,56.40
2018-03-24T14:31:51.022Z,56.70
2018-03-24T14:34:17.645Z,56.70
2018-03-24T14:36:44.309Z,56.40
2018-03-24T14:39:10.857Z,55.70
2018-03-24T14:41:37.452Z,56.00
2018-03-24T14:44:04.418Z,58.60
2018-03-24T14:46:31.000Z,58.60
2018-03-24T14:48:57.564Z,58.80
2018-03-24T14:51:24.146Z,57.30
2018-03-24T14:53:51.066Z,56.50
2018-03-24T14:56:17.653Z,56.50
2018-03-24T14:58:44.925Z,57.30
2018-03-24T15:01:11.477Z,57.30
2018-03-24T15:03:38.062Z,59.50
2018-03-24T15:06:04.654Z,60.00
2018-03-24T15:08:31.566Z,59.30
2018-03-24T15:10:58.157Z,59.30
2018-03-24T15:13:24.728Z,58.70
2018-03-24T15:15:51.554Z,58.80
2018-03-24T15:18:18.764Z,59.30
2018-03-24T15:20:45.964Z,59.30
2018-03-24T15:23:12.763Z,59.50
2018-03-24T15:25:39.570Z,59.90
2018-03-24T15:28:06.453Z,60.60
2018-03-24T15:30:45.442Z,61.10
2018-03-24T15:33:24.406Z,60.80
2018-03-24T15:36:03.272Z,61.10
2018-03-24T15:38:30.160Z,62.20
2018-03-24T15:40:56.986Z,63.00
2018-03-24T15:43:23.651Z,62.80
2018-03-24T15:45:50.637Z,63.40
2018-03-24T15:48:17.451Z,64.00
2018-03-24T15:50:44.315Z,63.10
2018-03-24T15:53:11.055Z,64.10
2018-03-24T15:55:37.689Z,64.50
2018-03-24T15:58:04.671Z,63.60
2018-03-24T16:00:31.349Z,63.60
2018-03-24T16:02:57.915Z,64.70
2018-03-24T16:05:24.513Z,65.50
2018-03-24T16:07:51.096Z,66.00
2018-03-24T16:10:17.665Z,64.70
2018-03-24T16:12:44.267Z,65.00
2018-03-24T16:15:10.918Z,65.90
2018-03-24T16:17:37.486Z,64.70
2018-03-24T16:20:04.093Z,65.30
2018-03-24T16:22:30.697Z,65.70
2018-03-24T16:24:57.239Z,66.30
2018-03-24T16:27:23.807Z,65.60
2018-03-24T16:29:50.386Z,67.20
2018-03-24T16:32:16.927Z,65.90
2018-03-24T16:34:43.954Z,67.30
2018-03-24T16:37:10.559Z,67.30
2018-03-24T16:39:37.110Z,66.30
2018-03-24T16:42:03.774Z,66.80
2018-03-24T16:44:30.374Z,67.10
2018-03-24T16:46:57.326Z,68.50
2018-03-24T16:49:24.265Z,68.10
2018-03-24T16:51:50.857Z,68.10
2018-03-24T16:54:17.496Z,67.80
2018-03-24T16:56:44.065Z,68.30
2018-03-24T16:59:10.654Z,67.40
2018-03-24T17:01:37.202Z,67.70
2018-03-24T17:04:03.838Z,68.30
2018-03-24T17:06:30.402Z,68.40
2018-03-24T17:08:56.958Z,68.80
2018-03-24T17:11:23.909Z,69.30
2018-03-24T17:13:50.477Z,69.30
2018-03-24T17:16:17.402Z,69.90
2018-03-24T17:18:44.032Z,69.90
2018-03-24T17:21:10.711Z,69.60
2018-03-24T17:23:37.438Z,70.10
2018-03-24T17:26:04.022Z,70.50
2018-03-24T17:28:30.974Z,70.10
2018-03-24T17:30:57.906Z,71.10
2018-03-24T17:33:24.606Z,71.10
2018-03-24T17:35:51.238Z,71.20
2018-03-24T17:38:18.165Z,71.40
2018-03-24T17:40:44.766Z,71.40
2018-03-24T17:43:11.409Z,71.70
2018-03-24T17:45:37.965Z,71.60
2018-03-24T17:48:04.637Z,71.50
2018-03-24T17:50:31.257Z,71.70
2018-03-24T17:52:57.819Z,71.70
2018-03-24T17:55:24.398Z,72.20
2018-03-24T17:57:51.001Z,71.80
2018-03-24T18:00:17.558Z,71.80
2018-03-24T18:02:44.129Z,71.70
2018-03-24T18:05:10.706Z,72.20
2018-03-24T18:07:37.258Z,72.40
2018-03-24T18:10:04.265Z,72.60
2018-03-24T18:12:30.834Z,72.60
2018-03-24T18:14:57.373Z,73.00
2018-03-24T18:17:23.946Z,73.30
2018-03-24T18:19:50.522Z,73.70
2018-03-24T18:22:17.442Z,73.90
2018-03-24T18:24:44.024Z,73.90
2018-03-24T18:27:10.614Z,73.80
2018-03-24T18:29:37.158Z,73.90
2018-03-24T18:32:03.769Z,74.00
2018-03-24T18:34:30.367Z,74.60
2018-03-24T18:36:56.935Z,74.50
2018-03-24T18:39:23.533Z,75.00
2018-03-24T18:41:50.133Z,75.20
2018-03-24T18:44:16.674Z,75.40
2018-03-24T18:46:43.329Z,75.50
2018-03-24T18:49:09.986Z,75.70
2018-03-24T18:51:36.534Z,75.60
2018-03-24T18:54:03.138Z,75.80
2018-03-24T18:56:29.710Z,75.90
2018-03-24T18:58:56.282Z,76.30
2018-03-24T19:01:22.849Z,76.40
2018-03-24T19:03:49.417Z,76.50
2018-03-24T19:06:15.970Z,76.50
2018-03-24T19:08:42.546Z,76.50
2018-03-24T19:11:09.130Z,77.30
2018-03-24T19:13:35.712Z,77.40
2018-03-24T19:16:02.305Z,77.50
2018-03-24T19:18:28.893Z,78.20
2018-03-24T19:20:55.422Z,78.00
2018-03-24T19:23:21.988Z,78.20
2018-03-24T19:25:49.038Z,78.60
2018-03-24T19:28:15.781Z,78.50
2018-03-24T19:30:42.725Z,79.50
2018-03-24T19:33:09.794Z,79.50
2018-03-24T19:35:36.732Z,79.60
2018-03-24T19:38:03.382Z,79.60
2018-03-24T19:40:29.961Z,79.70
2018-03-24T19:42:56.623Z,80.00
2018-03-24T19:45:23.185Z,79.50
2018-03-24T19:47:49.906Z,80.20
2018-03-24T19:50:16.442Z,80.60
2018-03-24T19:52:43.386Z,80.80
2018-03-24T19:55:10.337Z,81.20
2018-03-24T19:57:36.966Z,81.20
2018-03-24T20:00:03.580Z,81.50
2018-03-24T20:02:30.145Z,81.40
2018-03-24T20:04:56.687Z,81.00
2018-03-24T20:07:23.265Z,81.10
2018-03-24T20:09:49.833Z,81.10
2018-03-24T20:12:17.606Z,81.40
2018-03-24T20:14:44.537Z,82.30
2018-03-24T20:17:11.654Z,82.30
2018-03-24T20:19:38.214Z,81.60
2018-03-24T20:22:04.791Z,81.50
2018-03-24T20:24:31.374Z,82.20
2018-03-24T20:26:58.338Z,82.10
2018-03-24T20:29:25.273Z,81.80
2018-03-24T20:31:52.233Z,81.80
2018-03-24T20:34:19.138Z,82.20
2018-03-24T20:36:45.706Z,82.20
2018-03-24T20:39:12.567Z,82.30
2018-03-24T20:41:39.102Z,82.10
2018-03-24T20:44:05.675Z,82.30
2018-03-24T20:46:32.277Z,82.30
2018-03-24T20:48:58.804Z,82.70
2018-03-24T20:51:25.371Z,82.40
2018-03-24T20:53:51.962Z,82.80
2018-03-24T20:56:18.516Z,82.30
2018-03-24T20:58:45.459Z,82.00
2018-03-24T21:01:12.046Z,82.00
2018-03-24T21:03:38.586Z,81.70
2018-03-24T21:06:05.550Z,81.30
2018-03-24T21:08:32.158Z,81.30
2018-03-24T21:10:58.722Z,81.40
2018-03-24T21:13:25.286Z,81.00
2018-03-24T21:15:51.869Z,81.40
2018-03-24T21:18:18.457Z,81.80
2018-03-24T21:20:45.058Z,82.30
2018-03-24T21:23:11.652Z,82.30
2018-03-24T21:25:38.202Z,81.80
2018-03-24T21:28:04.773Z,81.90
2018-03-24T21:30:31.733Z,82.40
2018-03-24T21:32:58.294Z,82.40
2018-03-24T21:35:24.872Z,82.50
2018-03-24T21:37:51.455Z,82.40
2018-03-24T21:40:18.060Z,82.20
2018-03-24T21:42:44.629Z,81.80
2018-03-24T21:45:11.199Z,81.40
2018-03-24T21:47:37.766Z,81.80
2018-03-24T21:50:04.384Z,82.80
2018-03-24T21:52:30.969Z,82.40
2018-03-24T21:54:57.502Z,82.20
2018-03-24T21:57:24.478Z,82.20
2018-03-24T21:59:57.916Z,82.20
2018-03-24T22:02:24.494Z,82.70
2018-03-24T22:04:51.057Z,82.40
2018-03-24T22:07:18.133Z,82.10
2018-03-24T22:09:44.710Z,82.10
2018-03-24T22:12:11.284Z,82.50
2018-03-24T22:14:37.832Z,82.10
2018-03-24T22:17:04.421Z,82.00
2018-03-24T22:19:30.990Z,82.20
2018-03-24T22:21:57.558Z,82.50
2018-03-24T22:24:24.134Z,82.50
2018-03-24T22:26:50.706Z,82.10
2018-03-24T22:29:17.290Z,82.00
2018-03-24T22:31:43.874Z,82.10
2018-03-24T22:34:10.449Z,82.50
2018-03-24T22:36:37.349Z,82.20
2018-03-24T22:39:03.990Z,82.20
2018-03-24T22:41:30.573Z,82.80
2018-03-24T22:43:57.105Z,83.10
2018-03-24T22:46:23.682Z,83.00
2018-03-24T22:48:50.663Z,82.80
2018-03-24T22:51:17.186Z,82.80
2018-03-24T22:53:44.122Z,82.70
2018-03-24T22:56:10.733Z,82.70
2018-03-24T22:58:37.271Z,82.50
2018-03-24T23:01:03.903Z,82.50
2018-03-24T23:03:30.469Z,82.40
2018-03-24T23:05:57.005Z,82.30
2018-03-24T23:08:23.598Z,82.10
2018-03-24T23:10:50.184Z,82.30
2018-03-24T23:13:17.081Z,82.50
2018-03-24T23:15:43.641Z,82.50
2018-03-24T23:18:10.225Z,82.90
2018-03-24T23:20:37.142Z,82.70
2018-03-24T23:23:03.711Z,82.70
2018-03-24T23:25:30.296Z,82.50
2018-03-24T23:27:56.850Z,82.50
2018-03-24T23:30:23.441Z,82.20
2018-03-24T23:32:50.017Z,83.30
2018-03-24T23:35:16.953Z,83.70
2018-03-24T23:37:43.526Z,83.70
2018-03-24T23:40:10.458Z,83.40
2018-03-24T23:42:36.995Z,83.40
2018-03-24T23:45:03.652Z,83.80
2018-03-24T23:47:30.253Z,83.60
2018-03-24T23:49:56.828Z,83.70
2018-03-24T23:52:23.389Z,83.40
2018-03-24T23:54:49.962Z,83.00
2018-03-24T23:57:16.877Z,83.80
2018-03-24T23:59:43.457Z,83.80
